sensor_id;sensor_type;location;lat;lon;timestamp;P1;durP1;ratioP1;P2;durP2;ratioP2
59788;SDS011;47353;51.614;5.530;2023-09-07T00:00:54;14.32;;;12.70;;
59788;SDS011;47353;51.614;5.530;2023-09-07T00:03:19;13.48;;;12.07;;
59788;SDS011;47353;51.614;5.530;2023-09-07T00:05:44;14.98;;;12.55;;
59788;SDS011;47353;51.614;5.530;2023-09-07T00:08:10;15.95;;;12.40;;
59788;SDS011;47353;51.614;5.530;2023-09-07T00:10:35;15.15;;;12.98;;
59788;SDS011;47353;51.614;5.530;2023-09-07T00:13:01;14.27;;;12.77;;
59788;SDS011;47353;51.614;5.530;2023-09-07T00:15:28;15.10;;;12.38;;
59788;SDS011;47353;51.614;5.530;2023-09-07T00:17:55;13.57;;;11.98;;
59788;SDS011;47353;51.614;5.530;2023-09-07T00:20:20;13.25;;;11.75;;
59788;SDS011;47353;51.614;5.530;2023-09-07T00:22:46;16.98;;;12.60;;
59788;SDS011;47353;51.614;5.530;2023-09-07T00:25:12;14.63;;;13.02;;
59788;SDS011;47353;51.614;5.530;2023-09-07T00:27:38;16.42;;;12.82;;
59788;SDS011;47353;51.614;5.530;2023-09-07T00:30:04;14.35;;;12.80;;
59788;SDS011;47353;51.614;5.530;2023-09-07T00:32:31;14.55;;;12.63;;
59788;SDS011;47353;51.614;5.530;2023-09-07T00:34:58;14.30;;;12.88;;
59788;SDS011;47353;51.614;5.530;2023-09-07T00:37:24;14.90;;;13.27;;
59788;SDS011;47353;51.614;5.530;2023-09-07T00:39:49;18.08;;;12.68;;
59788;SDS011;47353;51.614;5.530;2023-09-07T00:42:14;16.88;;;13.23;;
59788;SDS011;47353;51.614;5.530;2023-09-07T00:44:40;15.63;;;13.10;;
59788;SDS011;47353;51.614;5.530;2023-09-07T00:47:05;17.27;;;13.27;;
59788;SDS011;47353;51.614;5.530;2023-09-07T00:49:30;19.38;;;13.27;;
59788;SDS011;47353;51.614;5.530;2023-09-07T00:51:56;17.20;;;13.40;;
59788;SDS011;47353;51.614;5.530;2023-09-07T00:54:22;16.75;;;13.38;;
59788;SDS011;47353;51.614;5.530;2023-09-07T00:56:48;14.90;;;13.38;;
59788;SDS011;47353;51.614;5.530;2023-09-07T00:59:14;18.85;;;13.38;;
59788;SDS011;47353;51.614;5.530;2023-09-07T01:01:39;16.85;;;13.88;;
59788;SDS011;47353;51.614;5.530;2023-09-07T01:04:04;16.25;;;13.55;;
59788;SDS011;47353;51.614;5.530;2023-09-07T01:06:45;17.02;;;14.13;;
59788;SDS011;47353;51.614;5.530;2023-09-07T01:09:19;16.73;;;14.20;;
59788;SDS011;47353;51.614;5.530;2023-09-07T01:11:48;16.15;;;14.48;;
59788;SDS011;47353;51.614;5.530;2023-09-07T01:14:15;15.75;;;13.88;;
59788;SDS011;47353;51.614;5.530;2023-09-07T01:16:40;19.02;;;14.18;;
59788;SDS011;47353;51.614;5.530;2023-09-07T01:19:06;16.70;;;14.25;;
59788;SDS011;47353;51.614;5.530;2023-09-07T01:21:34;16.42;;;14.50;;
59788;SDS011;47353;51.614;5.530;2023-09-07T01:24:00;15.52;;;13.93;;
59788;SDS011;47353;51.614;5.530;2023-09-07T01:26:27;15.85;;;14.23;;
59788;SDS011;47353;51.614;5.530;2023-09-07T01:28:53;17.67;;;14.73;;
59788;SDS011;47353;51.614;5.530;2023-09-07T01:31:18;16.55;;;14.48;;
59788;SDS011;47353;51.614;5.530;2023-09-07T01:33:44;19.20;;;14.70;;
59788;SDS011;47353;51.614;5.530;2023-09-07T01:36:09;17.92;;;15.40;;
59788;SDS011;47353;51.614;5.530;2023-09-07T01:38:35;16.95;;;14.75;;
59788;SDS011;47353;51.614;5.530;2023-09-07T01:41:00;18.33;;;14.73;;
59788;SDS011;47353;51.614;5.530;2023-09-07T01:43:26;21.05;;;15.10;;
59788;SDS011;47353;51.614;5.530;2023-09-07T01:45:51;19.30;;;15.07;;
59788;SDS011;47353;51.614;5.530;2023-09-07T01:48:16;18.30;;;15.40;;
59788;SDS011;47353;51.614;5.530;2023-09-07T01:50:42;16.35;;;14.60;;
59788;SDS011;47353;51.614;5.530;2023-09-07T01:53:07;19.88;;;15.02;;
59788;SDS011;47353;51.614;5.530;2023-09-07T01:55:33;16.27;;;14.57;;
59788;SDS011;47353;51.614;5.530;2023-09-07T01:57:59;18.00;;;15.27;;
59788;SDS011;47353;51.614;5.530;2023-09-07T02:00:24;19.45;;;15.43;;
59788;SDS011;47353;51.614;5.530;2023-09-07T02:02:50;17.55;;;15.38;;
59788;SDS011;47353;51.614;5.530;2023-09-07T02:05:15;16.90;;;14.98;;
59788;SDS011;47353;51.614;5.530;2023-09-07T02:07:41;16.17;;;14.45;;
59788;SDS011;47353;51.614;5.530;2023-09-07T02:10:07;19.83;;;15.48;;
59788;SDS011;47353;51.614;5.530;2023-09-07T02:12:33;17.70;;;15.27;;
59788;SDS011;47353;51.614;5.530;2023-09-07T02:15:00;17.35;;;15.55;;
59788;SDS011;47353;51.614;5.530;2023-09-07T02:17:28;19.25;;;15.30;;
59788;SDS011;47353;51.614;5.530;2023-09-07T02:19:55;17.38;;;15.48;;
59788;SDS011;47353;51.614;5.530;2023-09-07T02:22:20;17.60;;;14.88;;
59788;SDS011;47353;51.614;5.530;2023-09-07T02:24:46;16.52;;;14.82;;
59788;SDS011;47353;51.614;5.530;2023-09-07T02:27:11;18.33;;;14.75;;
59788;SDS011;47353;51.614;5.530;2023-09-07T02:29:36;17.80;;;15.50;;
59788;SDS011;47353;51.614;5.530;2023-09-07T02:32:02;17.13;;;15.35;;
59788;SDS011;47353;51.614;5.530;2023-09-07T02:34:28;17.73;;;14.85;;
59788;SDS011;47353;51.614;5.530;2023-09-07T02:36:53;16.33;;;14.63;;
59788;SDS011;47353;51.614;5.530;2023-09-07T02:39:19;18.17;;;15.82;;
59788;SDS011;47353;51.614;5.530;2023-09-07T02:41:45;16.40;;;14.57;;
59788;SDS011;47353;51.614;5.530;2023-09-07T02:44:11;17.65;;;15.70;;
59788;SDS011;47353;51.614;5.530;2023-09-07T02:46:36;17.60;;;15.77;;
59788;SDS011;47353;51.614;5.530;2023-09-07T02:49:02;17.58;;;15.20;;
59788;SDS011;47353;51.614;5.530;2023-09-07T02:51:28;18.98;;;15.52;;
59788;SDS011;47353;51.614;5.530;2023-09-07T02:54:10;18.95;;;16.17;;
59788;SDS011;47353;51.614;5.530;2023-09-07T02:56:35;18.73;;;15.88;;
59788;SDS011;47353;51.614;5.530;2023-09-07T02:59:01;18.60;;;16.23;;
59788;SDS011;47353;51.614;5.530;2023-09-07T03:01:26;19.10;;;16.15;;
59788;SDS011;47353;51.614;5.530;2023-09-07T03:03:52;20.30;;;15.13;;
59788;SDS011;47353;51.614;5.530;2023-09-07T03:06:17;18.38;;;16.30;;
59788;SDS011;47353;51.614;5.530;2023-09-07T03:08:43;20.10;;;15.60;;
59788;SDS011;47353;51.614;5.530;2023-09-07T03:11:09;16.73;;;15.02;;
59788;SDS011;47353;51.614;5.530;2023-09-07T03:13:35;17.48;;;14.65;;
59788;SDS011;47353;51.614;5.530;2023-09-07T03:16:01;20.88;;;16.25;;
59788;SDS011;47353;51.614;5.530;2023-09-07T03:18:27;17.75;;;15.45;;
59788;SDS011;47353;51.614;5.530;2023-09-07T03:20:54;18.40;;;15.73;;
59788;SDS011;47353;51.614;5.530;2023-09-07T03:23:21;18.60;;;15.32;;
59788;SDS011;47353;51.614;5.530;2023-09-07T03:25:48;19.63;;;15.13;;
59788;SDS011;47353;51.614;5.530;2023-09-07T03:28:13;18.52;;;15.55;;
59788;SDS011;47353;51.614;5.530;2023-09-07T03:30:38;18.98;;;15.40;;
59788;SDS011;47353;51.614;5.530;2023-09-07T03:33:05;19.58;;;15.27;;
59788;SDS011;47353;51.614;5.530;2023-09-07T03:35:30;20.65;;;15.77;;
59788;SDS011;47353;51.614;5.530;2023-09-07T03:37:56;19.10;;;15.75;;
59788;SDS011;47353;51.614;5.530;2023-09-07T03:40:22;19.55;;;15.18;;
59788;SDS011;47353;51.614;5.530;2023-09-07T03:42:47;17.92;;;14.65;;
59788;SDS011;47353;51.614;5.530;2023-09-07T03:45:13;21.02;;;14.75;;
59788;SDS011;47353;51.614;5.530;2023-09-07T03:47:38;20.60;;;14.98;;
59788;SDS011;47353;51.614;5.530;2023-09-07T03:50:04;23.13;;;14.63;;
59788;SDS011;47353;51.614;5.530;2023-09-07T03:52:30;21.45;;;14.98;;
59788;SDS011;47353;51.614;5.530;2023-09-07T03:54:56;18.15;;;14.90;;
59788;SDS011;47353;51.614;5.530;2023-09-07T03:57:23;16.63;;;14.88;;
59788;SDS011;47353;51.614;5.530;2023-09-07T03:59:50;18.13;;;14.90;;
59788;SDS011;47353;51.614;5.530;2023-09-07T04:02:15;17.80;;;14.57;;
59788;SDS011;47353;51.614;5.530;2023-09-07T04:04:42;16.80;;;14.88;;
59788;SDS011;47353;51.614;5.530;2023-09-07T04:07:08;20.73;;;15.02;;
59788;SDS011;47353;51.614;5.530;2023-09-07T04:09:33;20.48;;;15.27;;
59788;SDS011;47353;51.614;5.530;2023-09-07T04:11:58;19.77;;;16.70;;
59788;SDS011;47353;51.614;5.530;2023-09-07T04:14:24;21.08;;;15.90;;
59788;SDS011;47353;51.614;5.530;2023-09-07T04:16:49;22.75;;;15.57;;
59788;SDS011;47353;51.614;5.530;2023-09-07T04:19:16;23.13;;;16.00;;
59788;SDS011;47353;51.614;5.530;2023-09-07T04:21:42;21.05;;;15.77;;
59788;SDS011;47353;51.614;5.530;2023-09-07T04:24:07;20.80;;;16.75;;
59788;SDS011;47353;51.614;5.530;2023-09-07T04:26:33;21.50;;;15.30;;
59788;SDS011;47353;51.614;5.530;2023-09-07T04:28:59;19.38;;;15.63;;
59788;SDS011;47353;51.614;5.530;2023-09-07T04:31:24;23.05;;;16.52;;
59788;SDS011;47353;51.614;5.530;2023-09-07T04:33:52;18.58;;;15.85;;
59788;SDS011;47353;51.614;5.530;2023-09-07T04:36:18;21.75;;;15.77;;
59788;SDS011;47353;51.614;5.530;2023-09-07T04:38:44;22.67;;;15.85;;
59788;SDS011;47353;51.614;5.530;2023-09-07T04:41:09;21.23;;;15.75;;
59788;SDS011;47353;51.614;5.530;2023-09-07T04:43:39;18.65;;;13.13;;
59788;SDS011;47353;51.614;5.530;2023-09-07T04:46:07;17.88;;;15.63;;
59788;SDS011;47353;51.614;5.530;2023-09-07T04:48:33;21.88;;;16.52;;
59788;SDS011;47353;51.614;5.530;2023-09-07T04:51:02;20.30;;;16.65;;
59788;SDS011;47353;51.614;5.530;2023-09-07T04:53:30;21.73;;;15.98;;
59788;SDS011;47353;51.614;5.530;2023-09-07T04:55:58;20.80;;;16.33;;
59788;SDS011;47353;51.614;5.530;2023-09-07T04:58:24;19.33;;;15.50;;
59788;SDS011;47353;51.614;5.530;2023-09-07T05:00:50;19.20;;;16.23;;
59788;SDS011;47353;51.614;5.530;2023-09-07T05:03:16;20.73;;;16.30;;
59788;SDS011;47353;51.614;5.530;2023-09-07T05:05:42;22.13;;;16.52;;
59788;SDS011;47353;51.614;5.530;2023-09-07T05:08:08;20.73;;;16.45;;
59788;SDS011;47353;51.614;5.530;2023-09-07T05:10:34;23.23;;;16.38;;
59788;SDS011;47353;51.614;5.530;2023-09-07T05:13:00;22.23;;;16.73;;
59788;SDS011;47353;51.614;5.530;2023-09-07T05:15:25;20.25;;;16.40;;
59788;SDS011;47353;51.614;5.530;2023-09-07T05:17:51;20.52;;;16.42;;
59788;SDS011;47353;51.614;5.530;2023-09-07T05:20:17;21.65;;;16.45;;
59788;SDS011;47353;51.614;5.530;2023-09-07T05:22:43;22.65;;;16.83;;
59788;SDS011;47353;51.614;5.530;2023-09-07T05:25:08;20.50;;;16.73;;
59788;SDS011;47353;51.614;5.530;2023-09-07T05:27:35;20.75;;;16.73;;
59788;SDS011;47353;51.614;5.530;2023-09-07T05:30:00;23.83;;;17.17;;
59788;SDS011;47353;51.614;5.530;2023-09-07T05:32:26;23.25;;;17.08;;
59788;SDS011;47353;51.614;5.530;2023-09-07T05:34:52;24.15;;;17.10;;
59788;SDS011;47353;51.614;5.530;2023-09-07T05:37:17;25.10;;;17.08;;
59788;SDS011;47353;51.614;5.530;2023-09-07T05:39:42;28.42;;;17.10;;
59788;SDS011;47353;51.614;5.530;2023-09-07T05:42:08;23.70;;;17.40;;
59788;SDS011;47353;51.614;5.530;2023-09-07T05:44:33;20.58;;;17.08;;
59788;SDS011;47353;51.614;5.530;2023-09-07T05:46:59;20.10;;;16.75;;
59788;SDS011;47353;51.614;5.530;2023-09-07T05:49:24;21.08;;;16.63;;
59788;SDS011;47353;51.614;5.530;2023-09-07T05:51:50;20.52;;;15.93;;
59788;SDS011;47353;51.614;5.530;2023-09-07T05:54:15;22.98;;;16.20;;
59788;SDS011;47353;51.614;5.530;2023-09-07T05:56:41;21.58;;;16.35;;
59788;SDS011;47353;51.614;5.530;2023-09-07T05:59:06;26.23;;;16.83;;
59788;SDS011;47353;51.614;5.530;2023-09-07T06:01:32;21.23;;;16.60;;
59788;SDS011;47353;51.614;5.530;2023-09-07T06:03:58;27.65;;;16.52;;
59788;SDS011;47353;51.614;5.530;2023-09-07T06:06:23;23.45;;;16.27;;
59788;SDS011;47353;51.614;5.530;2023-09-07T06:08:49;24.65;;;17.23;;
59788;SDS011;47353;51.614;5.530;2023-09-07T06:11:15;20.10;;;16.88;;
59788;SDS011;47353;51.614;5.530;2023-09-07T06:13:41;24.80;;;17.48;;
59788;SDS011;47353;51.614;5.530;2023-09-07T06:16:07;21.73;;;16.90;;
59788;SDS011;47353;51.614;5.530;2023-09-07T06:18:32;20.58;;;16.48;;
59788;SDS011;47353;51.614;5.530;2023-09-07T06:20:57;18.25;;;15.80;;
59788;SDS011;47353;51.614;5.530;2023-09-07T06:23:23;19.77;;;16.05;;
59788;SDS011;47353;51.614;5.530;2023-09-07T06:25:48;17.15;;;12.40;;
59788;SDS011;47353;51.614;5.530;2023-09-07T06:28:14;19.75;;;14.20;;
59788;SDS011;47353;51.614;5.530;2023-09-07T06:30:39;15.82;;;13.63;;
59788;SDS011;47353;51.614;5.530;2023-09-07T06:33:05;15.75;;;12.63;;
59788;SDS011;47353;51.614;5.530;2023-09-07T06:35:30;15.57;;;12.27;;
59788;SDS011;47353;51.614;5.530;2023-09-07T06:37:56;16.45;;;13.60;;
59788;SDS011;47353;51.614;5.530;2023-09-07T06:40:21;13.73;;;10.50;;
59788;SDS011;47353;51.614;5.530;2023-09-07T06:42:47;16.33;;;13.32;;
59788;SDS011;47353;51.614;5.530;2023-09-07T06:45:12;15.32;;;11.77;;
59788;SDS011;47353;51.614;5.530;2023-09-07T06:47:38;19.08;;;13.57;;
59788;SDS011;47353;51.614;5.530;2023-09-07T06:50:04;19.45;;;12.70;;
59788;SDS011;47353;51.614;5.530;2023-09-07T06:52:30;17.35;;;13.18;;
59788;SDS011;47353;51.614;5.530;2023-09-07T06:54:56;17.83;;;13.65;;
59788;SDS011;47353;51.614;5.530;2023-09-07T06:57:21;18.42;;;12.60;;
59788;SDS011;47353;51.614;5.530;2023-09-07T06:59:47;17.45;;;14.52;;
59788;SDS011;47353;51.614;5.530;2023-09-07T07:02:13;18.02;;;13.77;;
59788;SDS011;47353;51.614;5.530;2023-09-07T07:04:39;15.73;;;13.57;;
59788;SDS011;47353;51.614;5.530;2023-09-07T07:07:04;16.15;;;13.30;;
59788;SDS011;47353;51.614;5.530;2023-09-07T07:09:31;16.88;;;13.70;;
59788;SDS011;47353;51.614;5.530;2023-09-07T07:11:57;16.65;;;13.30;;
59788;SDS011;47353;51.614;5.530;2023-09-07T07:14:25;16.00;;;14.30;;
59788;SDS011;47353;51.614;5.530;2023-09-07T07:16:50;16.40;;;13.23;;
59788;SDS011;47353;51.614;5.530;2023-09-07T07:19:16;14.10;;;11.63;;
59788;SDS011;47353;51.614;5.530;2023-09-07T07:21:41;20.33;;;14.82;;
59788;SDS011;47353;51.614;5.530;2023-09-07T07:24:07;18.45;;;12.32;;
59788;SDS011;47353;51.614;5.530;2023-09-07T07:26:32;16.90;;;11.85;;
59788;SDS011;47353;51.614;5.530;2023-09-07T07:28:58;13.25;;;10.70;;
59788;SDS011;47353;51.614;5.530;2023-09-07T07:31:23;13.93;;;11.18;;
59788;SDS011;47353;51.614;5.530;2023-09-07T07:33:49;15.05;;;10.63;;
59788;SDS011;47353;51.614;5.530;2023-09-07T07:36:15;15.55;;;10.90;;
59788;SDS011;47353;51.614;5.530;2023-09-07T07:38:40;12.75;;;10.40;;
59788;SDS011;47353;51.614;5.530;2023-09-07T07:41:06;11.10;;;9.60;;
59788;SDS011;47353;51.614;5.530;2023-09-07T07:43:34;13.88;;;9.20;;
59788;SDS011;47353;51.614;5.530;2023-09-07T07:46:00;13.68;;;8.95;;
59788;SDS011;47353;51.614;5.530;2023-09-07T07:48:25;11.88;;;8.30;;
59788;SDS011;47353;51.614;5.530;2023-09-07T07:50:50;10.30;;;8.13;;
59788;SDS011;47353;51.614;5.530;2023-09-07T07:53:16;10.18;;;7.95;;
59788;SDS011;47353;51.614;5.530;2023-09-07T07:55:41;10.60;;;7.90;;
59788;SDS011;47353;51.614;5.530;2023-09-07T07:58:07;11.73;;;7.93;;
59788;SDS011;47353;51.614;5.530;2023-09-07T08:00:37;12.23;;;7.68;;
59788;SDS011;47353;51.614;5.530;2023-09-07T08:03:03;11.82;;;7.20;;
59788;SDS011;47353;51.614;5.530;2023-09-07T08:05:33;9.80;;;7.10;;
59788;SDS011;47353;51.614;5.530;2023-09-07T08:07:58;11.93;;;7.22;;
59788;SDS011;47353;51.614;5.530;2023-09-07T08:10:24;10.60;;;6.90;;
59788;SDS011;47353;51.614;5.530;2023-09-07T08:12:54;12.38;;;6.85;;
59788;SDS011;47353;51.614;5.530;2023-09-07T08:15:20;7.50;;;6.18;;
59788;SDS011;47353;51.614;5.530;2023-09-07T08:17:47;10.63;;;6.40;;
59788;SDS011;47353;51.614;5.530;2023-09-07T08:20:14;10.30;;;6.25;;
59788;SDS011;47353;51.614;5.530;2023-09-07T08:22:40;7.75;;;6.50;;
59788;SDS011;47353;51.614;5.530;2023-09-07T08:25:07;9.07;;;6.60;;
59788;SDS011;47353;51.614;5.530;2023-09-07T08:27:33;8.82;;;6.40;;
59788;SDS011;47353;51.614;5.530;2023-09-07T08:29:59;10.50;;;6.10;;
59788;SDS011;47353;51.614;5.530;2023-09-07T08:32:25;6.78;;;5.93;;
59788;SDS011;47353;51.614;5.530;2023-09-07T08:34:50;7.00;;;5.85;;
59788;SDS011;47353;51.614;5.530;2023-09-07T08:37:17;8.45;;;6.05;;
59788;SDS011;47353;51.614;5.530;2023-09-07T08:39:45;9.25;;;5.93;;
59788;SDS011;47353;51.614;5.530;2023-09-07T08:42:11;6.40;;;5.53;;
59788;SDS011;47353;51.614;5.530;2023-09-07T08:44:37;8.75;;;5.70;;
59788;SDS011;47353;51.614;5.530;2023-09-07T08:47:06;6.30;;;4.78;;
59788;SDS011;47353;51.614;5.530;2023-09-07T08:49:33;8.77;;;4.70;;
59788;SDS011;47353;51.614;5.530;2023-09-07T08:51:59;10.05;;;4.90;;
59788;SDS011;47353;51.614;5.530;2023-09-07T08:54:28;8.27;;;5.43;;
59788;SDS011;47353;51.614;5.530;2023-09-07T08:56:55;8.77;;;4.90;;
59788;SDS011;47353;51.614;5.530;2023-09-07T08:59:22;8.68;;;4.88;;
59788;SDS011;47353;51.614;5.530;2023-09-07T09:01:47;6.47;;;4.75;;
59788;SDS011;47353;51.614;5.530;2023-09-07T09:04:13;6.03;;;4.45;;
59788;SDS011;47353;51.614;5.530;2023-09-07T09:06:38;6.80;;;4.88;;
59788;SDS011;47353;51.614;5.530;2023-09-07T09:09:04;6.90;;;4.90;;
59788;SDS011;47353;51.614;5.530;2023-09-07T09:11:32;7.25;;;4.32;;
59788;SDS011;47353;51.614;5.530;2023-09-07T09:13:57;5.70;;;4.32;;
59788;SDS011;47353;51.614;5.530;2023-09-07T09:16:23;7.88;;;5.55;;
59788;SDS011;47353;51.614;5.530;2023-09-07T09:18:52;6.75;;;4.55;;
59788;SDS011;47353;51.614;5.530;2023-09-07T09:21:20;5.80;;;4.43;;
59788;SDS011;47353;51.614;5.530;2023-09-07T09:23:50;6.05;;;4.10;;
59788;SDS011;47353;51.614;5.530;2023-09-07T09:26:17;6.30;;;4.18;;
59788;SDS011;47353;51.614;5.530;2023-09-07T09:28:43;6.63;;;5.13;;
59788;SDS011;47353;51.614;5.530;2023-09-07T09:31:12;8.90;;;4.43;;
59788;SDS011;47353;51.614;5.530;2023-09-07T09:33:42;5.63;;;4.03;;
59788;SDS011;47353;51.614;5.530;2023-09-07T09:36:08;6.82;;;4.15;;
59788;SDS011;47353;51.614;5.530;2023-09-07T09:38:34;8.20;;;3.97;;
59788;SDS011;47353;51.614;5.530;2023-09-07T09:41:00;6.10;;;3.97;;
59788;SDS011;47353;51.614;5.530;2023-09-07T09:43:28;9.23;;;3.80;;
59788;SDS011;47353;51.614;5.530;2023-09-07T09:45:53;7.05;;;4.20;;
59788;SDS011;47353;51.614;5.530;2023-09-07T09:48:20;10.30;;;4.43;;
59788;SDS011;47353;51.614;5.530;2023-09-07T09:50:48;8.68;;;4.75;;
59788;SDS011;47353;51.614;5.530;2023-09-07T09:53:18;10.18;;;5.53;;
59788;SDS011;47353;51.614;5.530;2023-09-07T09:55:49;7.97;;;4.82;;
59788;SDS011;47353;51.614;5.530;2023-09-07T09:58:17;8.05;;;4.78;;
59788;SDS011;47353;51.614;5.530;2023-09-07T10:00:46;9.43;;;4.05;;
59788;SDS011;47353;51.614;5.530;2023-09-07T10:05:52;6.13;;;4.40;;
59788;SDS011;47353;51.614;5.530;2023-09-07T10:08:18;9.27;;;4.00;;
59788;SDS011;47353;51.614;5.530;2023-09-07T10:10:47;7.43;;;4.13;;
59788;SDS011;47353;51.614;5.530;2023-09-07T10:13:14;11.73;;;3.60;;
59788;SDS011;47353;51.614;5.530;2023-09-07T10:15:40;6.70;;;3.70;;
59788;SDS011;47353;51.614;5.530;2023-09-07T10:18:13;5.10;;;4.00;;
59788;SDS011;47353;51.614;5.530;2023-09-07T10:20:48;6.35;;;3.92;;
59788;SDS011;47353;51.614;5.530;2023-09-07T10:23:19;7.50;;;3.88;;
59788;SDS011;47353;51.614;5.530;2023-09-07T10:25:51;6.45;;;3.30;;
59788;SDS011;47353;51.614;5.530;2023-09-07T10:28:22;5.82;;;3.80;;
59788;SDS011;47353;51.614;5.530;2023-09-07T10:31:01;5.05;;;3.63;;
59788;SDS011;47353;51.614;5.530;2023-09-07T10:33:34;4.25;;;3.00;;
59788;SDS011;47353;51.614;5.530;2023-09-07T10:36:03;4.15;;;3.45;;
59788;SDS011;47353;51.614;5.530;2023-09-07T10:38:34;4.88;;;3.15;;
59788;SDS011;47353;51.614;5.530;2023-09-07T10:41:01;3.75;;;3.22;;
59788;SDS011;47353;51.614;5.530;2023-09-07T10:43:28;5.32;;;3.47;;
59788;SDS011;47353;51.614;5.530;2023-09-07T10:45:58;4.20;;;3.08;;
59788;SDS011;47353;51.614;5.530;2023-09-07T10:48:25;3.58;;;2.95;;
59788;SDS011;47353;51.614;5.530;2023-09-07T10:50:53;3.55;;;3.00;;
59788;SDS011;47353;51.614;5.530;2023-09-07T10:53:26;4.80;;;2.90;;
59788;SDS011;47353;51.614;5.530;2023-09-07T10:55:52;4.47;;;2.80;;
59788;SDS011;47353;51.614;5.530;2023-09-07T10:58:26;7.45;;;3.30;;
59788;SDS011;47353;51.614;5.530;2023-09-07T11:00:53;3.30;;;2.60;;
59788;SDS011;47353;51.614;5.530;2023-09-07T11:03:19;5.32;;;2.90;;
59788;SDS011;47353;51.614;5.530;2023-09-07T11:05:44;8.75;;;3.33;;
59788;SDS011;47353;51.614;5.530;2023-09-07T11:08:10;4.00;;;3.42;;
59788;SDS011;47353;51.614;5.530;2023-09-07T11:10:36;5.43;;;3.10;;
59788;SDS011;47353;51.614;5.530;2023-09-07T11:13:04;4.63;;;3.03;;
59788;SDS011;47353;51.614;5.530;2023-09-07T11:15:31;5.70;;;3.20;;
59788;SDS011;47353;51.614;5.530;2023-09-07T11:17:58;5.13;;;3.00;;
59788;SDS011;47353;51.614;5.530;2023-09-07T11:20:29;5.90;;;3.13;;
59788;SDS011;47353;51.614;5.530;2023-09-07T11:22:54;5.47;;;2.97;;
59788;SDS011;47353;51.614;5.530;2023-09-07T11:25:20;4.75;;;3.13;;
59788;SDS011;47353;51.614;5.530;2023-09-07T11:27:45;6.18;;;3.08;;
59788;SDS011;47353;51.614;5.530;2023-09-07T11:30:11;3.65;;;2.95;;
59788;SDS011;47353;51.614;5.530;2023-09-07T11:32:36;6.63;;;3.00;;
59788;SDS011;47353;51.614;5.530;2023-09-07T11:35:03;5.32;;;2.90;;
59788;SDS011;47353;51.614;5.530;2023-09-07T11:37:32;5.07;;;3.00;;
59788;SDS011;47353;51.614;5.530;2023-09-07T11:39:58;3.83;;;3.13;;
59788;SDS011;47353;51.614;5.530;2023-09-07T11:42:23;5.05;;;2.95;;
59788;SDS011;47353;51.614;5.530;2023-09-07T11:44:49;4.78;;;2.72;;
59788;SDS011;47353;51.614;5.530;2023-09-07T11:47:14;9.48;;;2.90;;
59788;SDS011;47353;51.614;5.530;2023-09-07T11:49:39;6.45;;;3.10;;
59788;SDS011;47353;51.614;5.530;2023-09-07T11:52:05;5.05;;;3.00;;
59788;SDS011;47353;51.614;5.530;2023-09-07T11:54:31;7.20;;;3.13;;
59788;SDS011;47353;51.614;5.530;2023-09-07T11:56:56;6.10;;;2.80;;
59788;SDS011;47353;51.614;5.530;2023-09-07T11:59:22;3.00;;;2.70;;
59788;SDS011;47353;51.614;5.530;2023-09-07T12:01:48;7.00;;;3.10;;
59788;SDS011;47353;51.614;5.530;2023-09-07T12:04:13;4.85;;;2.97;;
59788;SDS011;47353;51.614;5.530;2023-09-07T12:06:39;5.25;;;3.20;;
59788;SDS011;47353;51.614;5.530;2023-09-07T12:09:05;6.20;;;3.30;;
59788;SDS011;47353;51.614;5.530;2023-09-07T12:11:34;5.82;;;2.85;;
59788;SDS011;47353;51.614;5.530;2023-09-07T12:14:00;6.30;;;3.40;;
59788;SDS011;47353;51.614;5.530;2023-09-07T12:16:26;5.25;;;3.25;;
59788;SDS011;47353;51.614;5.530;2023-09-07T12:18:52;4.88;;;3.20;;
59788;SDS011;47353;51.614;5.530;2023-09-07T12:21:20;6.47;;;3.20;;
59788;SDS011;47353;51.614;5.530;2023-09-07T12:23:46;3.50;;;2.70;;
59788;SDS011;47353;51.614;5.530;2023-09-07T12:26:14;6.85;;;3.00;;
59788;SDS011;47353;51.614;5.530;2023-09-07T12:28:41;7.13;;;3.10;;
59788;SDS011;47353;51.614;5.530;2023-09-07T12:31:07;5.97;;;3.00;;
59788;SDS011;47353;51.614;5.530;2023-09-07T12:33:32;3.33;;;2.90;;
59788;SDS011;47353;51.614;5.530;2023-09-07T12:35:58;3.33;;;2.85;;
59788;SDS011;47353;51.614;5.530;2023-09-07T12:38:24;5.85;;;3.45;;
59788;SDS011;47353;51.614;5.530;2023-09-07T12:40:53;5.80;;;2.92;;
59788;SDS011;47353;51.614;5.530;2023-09-07T12:43:19;4.90;;;3.03;;
59788;SDS011;47353;51.614;5.530;2023-09-07T12:45:45;4.72;;;3.10;;
59788;SDS011;47353;51.614;5.530;2023-09-07T12:48:11;5.10;;;2.83;;
59788;SDS011;47353;51.614;5.530;2023-09-07T12:50:36;3.25;;;2.70;;
59788;SDS011;47353;51.614;5.530;2023-09-07T12:53:01;9.45;;;3.13;;
59788;SDS011;47353;51.614;5.530;2023-09-07T12:55:27;7.03;;;3.20;;
59788;SDS011;47353;51.614;5.530;2023-09-07T12:57:54;6.50;;;3.05;;
59788;SDS011;47353;51.614;5.530;2023-09-07T13:00:20;5.28;;;3.10;;
59788;SDS011;47353;51.614;5.530;2023-09-07T13:02:45;3.63;;;2.70;;
59788;SDS011;47353;51.614;5.530;2023-09-07T13:05:11;3.25;;;2.95;;
59788;SDS011;47353;51.614;5.530;2023-09-07T13:07:36;4.10;;;3.00;;
59788;SDS011;47353;51.614;5.530;2023-09-07T13:10:02;3.85;;;3.15;;
59788;SDS011;47353;51.614;5.530;2023-09-07T13:12:31;3.75;;;2.80;;
59788;SDS011;47353;51.614;5.530;2023-09-07T13:14:57;4.22;;;2.70;;
59788;SDS011;47353;51.614;5.530;2023-09-07T13:17:23;3.72;;;2.70;;
59788;SDS011;47353;51.614;5.530;2023-09-07T13:19:48;3.10;;;2.80;;
59788;SDS011;47353;51.614;5.530;2023-09-07T13:22:14;3.05;;;2.75;;
59788;SDS011;47353;51.614;5.530;2023-09-07T13:24:39;5.70;;;2.85;;
59788;SDS011;47353;51.614;5.530;2023-09-07T13:27:05;4.78;;;2.83;;
59788;SDS011;47353;51.614;5.530;2023-09-07T13:29:33;4.82;;;2.90;;
59788;SDS011;47353;51.614;5.530;2023-09-07T13:31:59;4.10;;;2.92;;
59788;SDS011;47353;51.614;5.530;2023-09-07T13:34:25;4.50;;;3.33;;
59788;SDS011;47353;51.614;5.530;2023-09-07T13:36:50;5.28;;;2.90;;
59788;SDS011;47353;51.614;5.530;2023-09-07T13:39:16;5.22;;;2.85;;
59788;SDS011;47353;51.614;5.530;2023-09-07T13:41:41;3.53;;;2.83;;
59788;SDS011;47353;51.614;5.530;2023-09-07T13:44:07;3.85;;;2.97;;
59788;SDS011;47353;51.614;5.530;2023-09-07T13:46:33;6.13;;;3.17;;
59788;SDS011;47353;51.614;5.530;2023-09-07T13:48:58;6.75;;;2.75;;
59788;SDS011;47353;51.614;5.530;2023-09-07T13:51:23;5.35;;;2.90;;
59788;SDS011;47353;51.614;5.530;2023-09-07T13:53:49;4.20;;;2.90;;
59788;SDS011;47353;51.614;5.530;2023-09-07T13:56:15;4.30;;;2.95;;
59788;SDS011;47353;51.614;5.530;2023-09-07T13:58:41;4.80;;;3.00;;
59788;SDS011;47353;51.614;5.530;2023-09-07T14:01:06;5.60;;;3.05;;
59788;SDS011;47353;51.614;5.530;2023-09-07T14:03:32;4.63;;;3.08;;
59788;SDS011;47353;51.614;5.530;2023-09-07T14:05:57;4.97;;;2.90;;
59788;SDS011;47353;51.614;5.530;2023-09-07T14:08:23;3.30;;;3.00;;
59788;SDS011;47353;51.614;5.530;2023-09-07T14:10:49;4.82;;;2.85;;
59788;SDS011;47353;51.614;5.530;2023-09-07T14:13:17;5.85;;;3.17;;
59788;SDS011;47353;51.614;5.530;2023-09-07T14:15:43;3.83;;;3.17;;
59788;SDS011;47353;51.614;5.530;2023-09-07T14:18:09;6.85;;;2.90;;
59788;SDS011;47353;51.614;5.530;2023-09-07T14:20:35;4.55;;;3.53;;
59788;SDS011;47353;51.614;5.530;2023-09-07T14:23:00;7.15;;;3.30;;
59788;SDS011;47353;51.614;5.530;2023-09-07T14:25:26;3.45;;;3.15;;
59788;SDS011;47353;51.614;5.530;2023-09-07T14:27:52;8.70;;;3.25;;
59788;SDS011;47353;51.614;5.530;2023-09-07T14:30:18;5.88;;;3.05;;